Aeroporto :
LOGIN :

Iscrizione | Disclaimer

   EN    FR    IT 

 










Sommario :    VFR   VFR Marginale   IFR   IFR Intensivo   IFR Molto Intensivo
Visibilità : 
Base nubi : 
>= 8 km
>= 3000ft
5 / 8 km
1000 / 3000 ft
1500m / 5 km
500 / 1000 ft
800 / 1500m
200 / 500 ft
< 800m
< 200 ft
Simboli :   Temporali  Nebbia  Neve Forte  Precipitazioni Forti  Vento > 20 kt
SIGMETs :   Varie  Temporali  Ghiacco  Turbolenza  Onda orograficha  Ceneri Vulcaniche






- Altitudine del aeroporto : 239 ft
- Codice IATA : VRN


LIPX - Villafranca Int. Verona

ULTIMO METAR :
  • 231950Z 20003KT 160V250 6000 NSC 07/04 Q1021

METARs OBSOLETI :
  • 231920Z VRB02KT 6000 NSC 06/04 Q1021
  • 231850Z VRB02KT 6000 NSC 07/05 Q1021
  • 231820Z VRB01KT 6000 NSC 08/05 Q1022
  • 231750Z VRB01KT 5000 BR NSC 09/05 Q1022

TAF TAF LIPX
Valido dal 23 a 18 ore il 24 a 03 ore UTC


231700Z 2318/2403 VRB05KT 3000 BR NSC
BECMG 2320/2322 0800 FG BKN004



MetMap, La meteo Aeronautica in un colpo d'occhio ! - Copyright ORBIFLY Dicembre 2007 - Disclaimer

ORBIFLY MET'MAP TEAM :

Programmazione e sviluppo : Alexandra Zaïnal
Concezione : Baudouin d'Aumeries
Aiuto per la programmazione : Marc-Olivier Méhu
Supporto tecnico e logistico : Manuel Goepfert
Aiuto per la traduzione : Arnaldo La Scala

Contatto : metmap@orbifly.com




FONTI E CREDITI :

   NOAA